Time;durP1;ratioP1;P1;durP2;ratioP2;P2;SDS_P1;SDS_P2;PMS_P1;PMS_P2;Temp;Humidity;BMP_temperature;BMP_pressure;BME280_temperature;BME280_humidity;BME280_pressure;Samples;Min_cycle;Max_cycle;Signal;HPM_P1;HPM_P2
2021/07/09 00:02:12;;;;;;;0.75;0.30;;;;;;;-142.37;100.00;59669.53;5035571;28;20447;-63
2021/07/09 00:04:38;;;;;;;0.40;0.10;;;;;;;-142.37;100.00;59669.53;5035887;28;20052;-63
2021/07/09 00:07:04;;;;;;;0.93;0.20;;;;;;;-142.37;100.00;59669.53;5035416;28;20030;-62
2021/07/09 00:09:30;;;;;;;0.45;0.30;;;;;;;-142.37;100.00;59669.53;5035519;28;20029;-62
2021/07/09 00:11:56;;;;;;;0.52;0.13;;;;;;;-142.37;100.00;59669.53;5035105;28;20025;-63
2021/07/09 00:14:30;;;;;;;0.80;0.50;;;;;;;-142.37;100.00;59669.53;5035284;28;20029;-63
2021/07/09 00:16:56;;;;;;;0.30;0.20;;;;;;;-142.37;100.00;59669.53;5034162;28;20017;-63
2021/07/09 00:19:21;;;;;;;1.05;0.22;;;;;;;-142.37;100.00;59669.53;5035290;28;20665;-62
2021/07/09 00:21:47;;;;;;;1.30;0.40;;;;;;;-142.37;100.00;59669.53;5035449;28;20031;-62
2021/07/09 00:24:13;;;;;;;0.35;0.13;;;;;;;-142.37;100.00;59669.53;5035230;28;20029;-63
2021/07/09 00:26:39;;;;;;;0.77;0.20;;;;;;;-142.37;100.00;59669.53;5035441;28;20053;-62
2021/07/09 00:29:04;;;;;;;1.45;0.65;;;;;;;-142.37;100.00;59669.53;5035058;28;20492;-62
2021/07/09 00:31:32;;;;;;;0.65;0.20;;;;;;;-142.37;100.00;59669.53;5035125;28;20467;-62
2021/07/09 00:34:04;;;;;;;0.77;0.30;;;;;;;-142.37;100.00;59669.53;5034081;28;20379;-64
2021/07/09 00:36:29;;;;;;;1.23;0.38;;;;;;;-142.37;100.00;59669.53;5035192;28;20017;-63
2021/07/09 00:38:55;;;;;;;1.95;0.40;;;;;;;-142.37;100.00;59669.53;5034993;28;20371;-61
2021/07/09 00:41:21;;;;;;;0.70;0.20;;;;;;;-142.37;100.00;59669.53;5035204;28;20026;-62
2021/07/09 00:43:47;;;;;;;1.77;0.25;;;;;;;-142.37;100.00;59669.53;5034892;28;20029;-64
2021/07/09 00:46:13;;;;;;;0.98;0.35;;;;;;;-142.37;100.00;59669.53;5034781;28;20033;-63
2021/07/09 00:48:38;;;;;;;1.23;0.35;;;;;;;-142.37;100.00;59669.53;5034775;28;20357;-61
2021/07/09 00:51:09;;;;;;;1.05;0.38;;;;;;;-142.37;100.00;59669.53;5034586;28;20536;-62
2021/07/09 00:53:35;;;;;;;0.47;0.30;;;;;;;-142.37;100.00;59669.53;5034727;28;20033;-64
2021/07/09 00:56:03;;;;;;;0.70;0.20;;;;;;;-142.37;100.00;59669.53;5034721;28;20372;-63
2021/07/09 00:58:28;;;;;;;1.00;0.68;;;;;;;-142.37;100.00;59669.53;5034388;28;20500;-62
2021/07/09 01:00:55;;;;;;;0.77;0.30;;;;;;;-142.37;100.00;59669.53;5034529;28;20059;-61
2021/07/09 01:03:20;;;;;;;0.35;0.20;;;;;;;-142.37;100.00;59669.53;5034247;28;20070;-64
2021/07/09 01:05:45;;;;;;;0.85;0.20;;;;;;;-142.37;100.00;59669.53;5034505;28;20029;-63
2021/07/09 01:08:12;;;;;;;0.50;0.20;;;;;;;-142.37;100.00;59669.53;5034425;28;20029;-62
2021/07/09 01:10:37;;;;;;;0.38;0.38;;;;;;;-142.37;100.00;59669.53;5034546;28;20025;-61
2021/07/09 01:13:03;;;;;;;0.35;0.20;;;;;;;-142.37;100.00;59669.53;5034275;28;20746;-62
2021/07/09 01:15:29;;;;;;;1.05;0.50;;;;;;;-142.37;100.00;59669.53;5034305;28;20021;-64
2021/07/09 01:17:55;;;;;;;0.43;0.20;;;;;;;-142.37;100.00;59669.53;5044280;28;20139;-63
2021/07/09 01:20:21;;;;;;;1.38;0.30;;;;;;;-142.37;100.00;59669.53;5054195;28;20082;-62
2021/07/09 01:22:49;;;;;;;2.22;0.70;;;;;;;-142.37;100.00;59669.53;5054060;28;20059;-62
2021/07/09 01:25:21;;;;;;;1.30;0.30;;;;;;;-142.37;100.00;59669.53;5053664;28;20460;-64
2021/07/09 01:27:49;;;;;;;0.98;0.30;;;;;;;-142.37;100.00;59669.53;5054028;28;20041;-63
2021/07/09 01:30:19;;;;;;;0.73;0.25;;;;;;;-142.37;100.00;59669.53;5053853;28;20048;-62
2021/07/09 01:32:45;;;;;;;0.65;0.30;;;;;;;-142.37;100.00;59669.53;5053696;28;20025;-63
2021/07/09 01:35:11;;;;;;;0.55;0.20;;;;;;;-142.37;100.00;59669.53;5053757;28;20031;-63
2021/07/09 01:37:37;;;;;;;0.45;0.30;;;;;;;-142.37;100.00;59669.53;5053518;28;20025;-63
2021/07/09 01:40:06;;;;;;;1.60;0.30;;;;;;;-142.37;100.00;59669.53;5052290;28;20063;-63
2021/07/09 01:42:32;;;;;;;0.35;0.20;;;;;;;-142.37;100.00;59669.53;5053605;28;20099;-62
2021/07/09 01:44:57;;;;;;;1.27;0.30;;;;;;;-142.37;100.00;59669.53;5053532;28;20029;-63
2021/07/09 01:47:23;;;;;;;0.82;0.32;;;;;;;-142.37;100.00;59669.53;5053689;28;20029;-62
2021/07/09 01:49:57;;;;;;;2.83;0.43;;;;;;;-142.37;100.00;59669.53;5053413;28;20029;-62
2021/07/09 01:52:23;;;;;;;0.47;0.22;;;;;;;-142.37;100.00;59669.53;5053519;28;20098;-62
2021/07/09 01:54:49;;;;;;;0.52;0.25;;;;;;;-142.37;100.00;59669.53;5053368;28;20035;-62
2021/07/09 01:57:14;;;;;;;0.88;0.30;;;;;;;-142.37;100.00;59669.53;5053399;28;20024;-62
2021/07/09 01:59:41;;;;;;;0.28;0.20;;;;;;;-142.37;100.00;59669.53;5053409;28;20068;-62
2021/07/09 02:02:07;;;;;;;0.30;0.20;;;;;;;-142.37;100.00;59669.53;5053290;28;20053;-62
2021/07/09 02:04:33;;;;;;;0.52;0.20;;;;;;;-142.37;100.00;59669.53;5053290;28;20068;-62
2021/07/09 02:06:59;;;;;;;0.28;0.22;;;;;;;-142.37;100.00;59669.53;5052957;28;20021;-63
2021/07/09 02:09:24;;;;;;;1.30;0.30;;;;;;;-142.37;100.00;59669.53;5053296;28;20655;-62
2021/07/09 02:11:50;;;;;;;0.95;0.30;;;;;;;-142.37;100.00;59669.53;5053146;28;20466;-62
2021/07/09 02:14:16;;;;;;;1.45;0.38;;;;;;;-142.37;100.00;59669.53;5053235;28;20111;-62
2021/07/09 02:16:41;;;;;;;0.85;0.20;;;;;;;-142.37;100.00;59669.53;5053043;28;20100;-64
2021/07/09 02:19:07;;;;;;;1.15;0.30;;;;;;;-142.37;100.00;59669.53;5032931;28;20083;-63
2021/07/09 02:21:33;;;;;;;0.60;0.30;;;;;;;-142.37;100.00;59669.53;5033263;28;20037;-63
2021/07/09 02:23:59;;;;;;;0.75;0.20;;;;;;;-142.37;100.00;59669.53;5032828;28;20067;-61
2021/07/09 02:26:24;;;;;;;0.90;0.60;;;;;;;-142.37;100.00;59669.53;5033087;28;20067;-61
2021/07/09 02:28:50;;;;;;;0.80;0.30;;;;;;;-142.37;100.00;59669.53;5033260;28;20053;-63
2021/07/09 02:31:15;;;;;;;1.02;0.30;;;;;;;-142.37;100.00;59669.53;5033036;28;20071;-62
2021/07/09 02:33:41;;;;;;;1.27;0.30;;;;;;;-142.37;100.00;59669.53;5033134;28;20495;-61
2021/07/09 02:36:06;;;;;;;0.40;0.30;;;;;;;-142.37;100.00;59669.53;5032983;28;20026;-61
2021/07/09 02:38:31;;;;;;;0.85;0.20;;;;;;;-142.37;100.00;59669.53;5033107;28;20109;-63
2021/07/09 02:40:57;;;;;;;1.15;0.50;;;;;;;-142.37;100.00;59669.53;5031844;28;20032;-63
2021/07/09 02:43:22;;;;;;;1.02;0.40;;;;;;;-142.37;100.00;59669.53;5032886;28;20511;-61
2021/07/09 02:45:47;;;;;;;1.08;0.40;;;;;;;-142.37;100.00;59669.53;5033002;28;20060;-61
2021/07/09 02:48:13;;;;;;;1.67;0.38;;;;;;;-142.37;100.00;59669.53;5032497;28;20033;-63
2021/07/09 02:50:39;;;;;;;1.65;0.40;;;;;;;-142.37;100.00;59669.53;5033070;28;20025;-63
2021/07/09 02:53:04;;;;;;;0.60;0.20;;;;;;;-142.37;100.00;59669.53;5032679;28;20076;-62
2021/07/09 02:55:29;;;;;;;1.75;0.30;;;;;;;-142.37;100.00;59669.53;5032915;28;20116;-62
2021/07/09 02:57:55;;;;;;;0.73;0.20;;;;;;;-142.37;100.00;59669.53;5035892;28;20547;-62
2021/07/09 03:00:20;;;;;;;0.73;0.45;;;;;;;-142.37;100.00;59669.53;5036815;28;20025;-63
2021/07/09 03:02:46;;;;;;;1.00;0.20;;;;;;;-142.37;100.00;59669.53;5036669;28;20036;-62
2021/07/09 03:05:12;;;;;;;0.85;0.20;;;;;;;-142.37;100.00;59669.53;5036892;28;20021;-61
2021/07/09 03:07:39;;;;;;;0.10;0.10;;;;;;;-142.37;100.00;59669.53;5036722;28;20029;-61
2021/07/09 03:10:06;;;;;;;0.30;0.20;;;;;;;-142.37;100.00;59669.53;5036664;28;20480;-63
2021/07/09 03:12:31;;;;;;;1.75;0.40;;;;;;;-142.37;100.00;59669.53;5036502;28;20033;-62
2021/07/09 03:14:57;;;;;;;1.92;0.20;;;;;;;-142.37;100.00;59669.53;5036536;28;20353;-61
2021/07/09 03:17:22;;;;;;;1.75;0.50;;;;;;;-142.37;100.00;59669.53;5042223;28;20016;-61
2021/07/09 03:19:47;;;;;;;0.85;0.40;;;;;;;-142.37;100.00;59669.53;5056234;28;20066;-64
2021/07/09 03:22:13;;;;;;;0.55;0.15;;;;;;;-142.37;100.00;59669.53;5056321;28;20044;-63
2021/07/09 03:24:38;;;;;;;0.60;0.20;;;;;;;-142.37;100.00;59669.53;5056447;28;20102;-61
2021/07/09 03:27:05;;;;;;;0.40;0.20;;;;;;;-142.37;100.00;59669.53;5056125;28;20464;-62
2021/07/09 03:29:31;;;;;;;0.65;0.22;;;;;;;-142.37;100.00;59669.53;5056275;28;20167;-62
2021/07/09 03:31:56;;;;;;;0.82;0.38;;;;;;;-142.37;100.00;59669.53;5056104;28;20507;-64
2021/07/09 03:34:22;;;;;;;1.67;0.20;;;;;;;-142.37;100.00;59669.53;5056189;28;20029;-62
2021/07/09 03:36:48;;;;;;;1.27;0.20;;;;;;;-142.37;100.00;59669.53;5055914;28;20419;-61
2021/07/09 03:39:14;;;;;;;0.28;0.13;;;;;;;-142.37;100.00;59669.53;5055955;28;20028;-62
2021/07/09 03:41:40;;;;;;;0.65;0.25;;;;;;;-142.37;100.00;59669.53;5056142;28;20029;-63
2021/07/09 03:44:08;;;;;;;0.32;0.20;;;;;;;-142.37;100.00;59669.53;5055683;28;20025;-63
2021/07/09 03:46:34;;;;;;;1.23;0.30;;;;;;;-142.37;100.00;59669.53;5055984;28;20143;-62
2021/07/09 03:49:00;;;;;;;0.20;0.20;;;;;;;-142.37;100.00;59669.53;5054304;28;20559;-62
2021/07/09 03:51:25;;;;;;;0.88;0.20;;;;;;;-142.37;100.00;59669.53;5048344;28;20105;-62
2021/07/09 03:53:54;;;;;;;0.70;0.20;;;;;;;-142.37;100.00;59669.53;5035845;28;20045;-63
2021/07/09 03:56:29;;;;;;;0.70;0.30;;;;;;;-142.37;100.00;59669.53;5035884;28;20515;-62
2021/07/09 03:58:56;;;;;;;0.50;0.20;;;;;;;-142.37;100.00;59669.53;5035490;28;20050;-61
2021/07/09 04:01:21;;;;;;;0.38;0.10;;;;;;;-142.37;100.00;59669.53;5035603;28;20025;-61
2021/07/09 04:03:46;;;;;;;0.90;0.20;;;;;;;-142.37;100.00;59669.53;5035365;28;20579;-63
2021/07/09 04:06:12;;;;;;;0.32;0.20;;;;;;;-142.37;100.00;59669.53;5035465;28;20041;-63
2021/07/09 04:08:37;;;;;;;0.80;0.17;;;;;;;-142.37;100.00;59669.53;5034493;28;20376;-62
2021/07/09 04:11:02;;;;;;;0.82;0.10;;;;;;;-142.37;100.00;59669.53;5035258;28;20030;-62
2021/07/09 04:13:28;;;;;;;1.40;0.38;;;;;;;-142.37;100.00;59669.53;5034329;28;20059;-63
2021/07/09 04:15:53;;;;;;;0.30;0.10;;;;;;;-142.37;100.00;59669.53;5035256;28;20018;-63
2021/07/09 04:18:18;;;;;;;0.30;0.10;;;;;;;-142.37;100.00;59669.53;5048947;28;20040;-62
2021/07/09 04:20:44;;;;;;;0.13;0.13;;;;;;;-142.37;100.00;59669.53;5055463;28;20033;-62
2021/07/09 04:23:09;;;;;;;0.60;0.30;;;;;;;-142.37;100.00;59669.53;5055195;28;20029;-62
2021/07/09 04:25:34;;;;;;;0.85;0.10;;;;;;;-142.37;100.00;59669.53;5054974;28;20471;-63
2021/07/09 04:28:00;;;;;;;0.10;0.10;;;;;;;-142.37;100.00;59669.53;5055057;28;20517;-62
2021/07/09 04:30:26;;;;;;;0.47;0.10;;;;;;;-142.37;100.00;59669.53;5055092;28;20021;-62
2021/07/09 04:32:51;;;;;;;0.30;0.22;;;;;;;-142.37;100.00;59669.53;5055037;28;20031;-62
2021/07/09 04:35:18;;;;;;;0.32;0.17;;;;;;;-142.37;100.00;59669.53;5054760;28;20099;-64
2021/07/09 04:37:43;;;;;;;1.05;0.20;;;;;;;-142.37;100.00;59669.53;5055121;28;20025;-63
2021/07/09 04:40:09;;;;;;;1.02;0.20;;;;;;;-142.37;100.00;59669.53;5054764;28;20107;-62
2021/07/09 04:42:35;;;;;;;0.43;0.10;;;;;;;-142.37;100.00;59669.53;5054632;28;20037;-62
2021/07/09 04:45:00;;;;;;;0.50;0.30;;;;;;;-142.37;100.00;59669.53;5054305;28;20025;-63
2021/07/09 04:47:26;;;;;;;0.73;0.10;;;;;;;-142.37;100.00;59669.53;5054409;28;20036;-64
2021/07/09 04:49:51;;;;;;;0.43;0.20;;;;;;;-142.37;100.00;59669.53;5054941;28;20096;-63
2021/07/09 04:52:17;;;;;;;0.75;0.30;;;;;;;-142.37;100.00;59669.53;5054465;28;20040;-62
2021/07/09 04:54:42;;;;;;;0.70;0.30;;;;;;;-142.37;100.00;59669.53;5054783;28;20028;-62
2021/07/09 04:57:07;;;;;;;1.98;0.30;;;;;;;-142.37;100.00;59669.53;5054593;28;20056;-64
2021/07/09 04:59:33;;;;;;;0.17;0.10;;;;;;;-142.37;100.00;59669.53;5054278;28;20053;-63
2021/07/09 05:01:58;;;;;;;1.50;0.20;;;;;;;-142.37;100.00;59669.53;5054415;28;20490;-62
2021/07/09 05:04:23;;;;;;;1.17;0.25;;;;;;;-142.37;100.00;59669.53;5054612;28;20033;-62
2021/07/09 05:06:49;;;;;;;0.22;0.10;;;;;;;-142.37;100.00;59669.53;5054265;28;20025;-62
2021/07/09 05:09:14;;;;;;;0.25;0.20;;;;;;;-142.37;100.00;59669.53;5053214;28;20021;-64
2021/07/09 05:11:40;;;;;;;0.77;0.52;;;;;;;-142.37;100.00;59669.53;5053982;28;20039;-63
2021/07/09 05:14:05;;;;;;;0.73;0.10;;;;;;;-142.37;100.00;59669.53;5053155;28;20039;-62
2021/07/09 05:16:34;;;;;;;0.75;0.20;;;;;;;-142.37;100.00;59669.53;5054023;28;20454;-62
2021/07/09 05:19:04;;;;;;;0.20;0.20;;;;;;;-142.37;100.00;59669.53;5034324;28;20029;-62
2021/07/09 05:21:31;;;;;;;0.10;0.10;;;;;;;-142.37;100.00;59669.53;5034405;28;20373;-63
2021/07/09 05:23:57;;;;;;;2.08;0.25;;;;;;;-142.37;100.00;59669.53;5033903;28;20017;-63
2021/07/09 05:26:22;;;;;;;0.85;0.22;;;;;;;-142.37;100.00;59669.53;5034180;28;20026;-61
2021/07/09 05:28:48;;;;;;;0.50;0.08;;;;;;;-142.37;100.00;59669.53;5034162;28;20140;-62
2021/07/09 05:31:14;;;;;;;0.35;0.10;;;;;;;-142.37;100.00;59669.53;5034008;28;20025;-64
2021/07/09 05:33:40;;;;;;;0.30;0.10;;;;;;;-142.37;100.00;59669.53;5033938;28;20427;-63
2021/07/09 05:36:05;;;;;;;0.08;0.08;;;;;;;-142.37;100.00;59669.53;5033835;28;20021;-62
2021/07/09 05:38:31;;;;;;;0.60;0.10;;;;;;;-142.37;100.00;59669.53;5033978;28;20025;-62
2021/07/09 05:40:56;;;;;;;0.40;0.20;;;;;;;-142.37;100.00;59669.53;5033500;28;20028;-62
2021/07/09 05:43:21;;;;;;;0.43;0.20;;;;;;;-142.37;100.00;59669.53;5033699;28;20048;-64
2021/07/09 05:45:47;;;;;;;0.43;0.10;;;;;;;-142.37;100.00;59669.53;5033696;28;20033;-62
2021/07/09 05:48:12;;;;;;;0.52;0.20;;;;;;;-142.37;100.00;59669.53;5033329;28;20539;-62
2021/07/09 05:50:40;;;;;;;0.57;0.20;;;;;;;-142.37;100.00;59669.53;5033794;28;20052;-62
2021/07/09 05:53:06;;;;;;;0.55;0.10;;;;;;;-142.37;100.00;59669.53;5033444;28;20030;-64
2021/07/09 05:55:31;;;;;;;0.60;0.10;;;;;;;-142.37;100.00;59669.53;5033651;28;20038;-63
2021/07/09 05:57:56;;;;;;;0.98;0.50;;;;;;;-142.37;100.00;59669.53;5033453;28;20040;-62
2021/07/09 06:00:21;;;;;;;0.68;0.20;;;;;;;-142.37;100.00;59669.53;5033573;28;20648;-62
2021/07/09 06:02:47;;;;;;;0.88;0.15;;;;;;;-142.37;100.00;59669.53;5033352;28;20021;-62
2021/07/09 06:05:12;;;;;;;0.40;0.20;;;;;;;-142.37;100.00;59669.53;5032175;28;20029;-63
2021/07/09 06:07:38;;;;;;;0.35;0.10;;;;;;;-142.37;100.00;59669.53;5033143;28;20038;-63
2021/07/09 06:10:05;;;;;;;0.35;0.13;;;;;;;-142.37;100.00;59669.53;5033318;28;20037;-63
2021/07/09 06:12:31;;;;;;;1.02;0.20;;;;;;;-142.37;100.00;59669.53;5037770;28;20028;-63
2021/07/09 06:14:56;;;;;;;0.57;0.13;;;;;;;-142.37;100.00;59669.53;5039375;28;20414;-65
2021/07/09 06:17:22;;;;;;;0.35;0.30;;;;;;;-142.37;100.00;59669.53;5051647;28;20023;-64
2021/07/09 06:19:48;;;;;;;0.70;0.13;;;;;;;-142.37;100.00;59669.53;5035900;28;20419;-64
2021/07/09 06:22:13;;;;;;;0.65;0.10;;;;;;;-142.37;100.00;59669.53;5032993;28;20037;-64
2021/07/09 06:24:39;;;;;;;0.90;0.20;;;;;;;-142.37;100.00;59669.53;5033231;28;20032;-64
2021/07/09 06:27:06;;;;;;;0.30;0.10;;;;;;;-142.37;100.00;59669.53;5041462;28;20033;-65
2021/07/09 06:29:33;;;;;;;1.27;0.30;;;;;;;-142.37;100.00;59669.53;5045181;28;20124;-64
2021/07/09 06:31:58;;;;;;;0.57;0.10;;;;;;;-142.37;100.00;59669.53;5038820;28;20053;-63
2021/07/09 06:34:24;;;;;;;1.33;0.17;;;;;;;-142.37;100.00;59669.53;5041986;28;20494;-64
2021/07/09 06:36:49;;;;;;;0.70;0.20;;;;;;;-142.37;100.00;59669.53;5052114;28;20055;-64
2021/07/09 06:39:15;;;;;;;0.70;0.10;;;;;;;-142.37;100.00;59669.53;5044538;28;20124;-64
2021/07/09 06:41:40;;;;;;;0.50;0.10;;;;;;;-142.37;100.00;59669.53;5044731;28;20070;-62
2021/07/09 06:44:05;;;;;;;0.80;0.28;;;;;;;-142.37;100.00;59669.53;5043052;28;20407;-62
2021/07/09 06:46:31;;;;;;;0.38;0.20;;;;;;;-142.37;100.00;59669.53;5044738;28;20082;-62
2021/07/09 06:48:56;;;;;;;0.65;0.38;;;;;;;-142.37;100.00;59669.53;5032937;28;20105;-62
2021/07/09 06:51:21;;;;;;;0.32;0.30;;;;;;;-142.37;100.00;59669.53;5045306;28;20356;-61
2021/07/09 06:53:49;;;;;;;0.80;0.20;;;;;;;-142.37;100.00;59669.53;5047261;28;20483;-62
2021/07/09 06:56:15;;;;;;;0.98;0.20;;;;;;;-142.37;100.00;59669.53;5034499;28;20056;-62
2021/07/09 06:58:41;;;;;;;0.30;0.20;;;;;;;-142.37;100.00;59669.53;5032927;28;20077;-62
2021/07/09 07:01:06;;;;;;;0.63;0.10;;;;;;;-142.37;100.00;59669.53;5035076;28;20457;-62
2021/07/09 07:03:32;;;;;;;0.68;0.10;;;;;;;-142.37;100.00;59669.53;5041606;28;20078;-62
2021/07/09 07:05:57;;;;;;;0.32;0.10;;;;;;;-142.37;100.00;59669.53;5033894;28;20033;-62
2021/07/09 07:08:26;;;;;;;0.43;0.00;;;;;;;-142.37;100.00;59669.53;5050697;28;20033;-63
2021/07/09 07:10:53;;;;;;;0.30;0.30;;;;;;;-142.37;100.00;59669.53;5039153;28;20032;-62
2021/07/09 07:13:20;;;;;;;0.43;0.22;;;;;;;-142.37;100.00;59669.53;5034833;28;20067;-62
2021/07/09 07:15:45;;;;;;;0.55;0.15;;;;;;;-142.37;100.00;59669.53;5042672;28;20033;-62
2021/07/09 07:18:12;;;;;;;1.48;0.30;;;;;;;-142.37;100.00;59669.53;5040743;28;20021;-62
2021/07/09 07:20:41;;;;;;;0.25;0.10;;;;;;;-142.37;100.00;59669.53;5030710;28;20116;-62
2021/07/09 07:23:07;;;;;;;0.55;0.30;;;;;;;-142.37;100.00;59669.53;5044615;28;20407;-63
2021/07/09 07:25:34;;;;;;;1.73;0.15;;;;;;;-142.37;100.00;59669.53;5039211;28;20028;-62
2021/07/09 07:28:00;;;;;;;1.10;0.20;;;;;;;-142.37;100.00;59669.53;5048668;28;20476;-62
2021/07/09 07:30:27;;;;;;;3.20;0.30;;;;;;;-142.37;100.00;59669.53;5043448;28;20029;-61
2021/07/09 07:32:52;;;;;;;0.98;0.20;;;;;;;-142.37;100.00;59669.53;5046792;28;20075;-64
2021/07/09 07:35:17;;;;;;;0.50;0.20;;;;;;;-142.37;100.00;59669.53;5039656;28;20029;-62
2021/07/09 07:37:43;;;;;;;0.43;0.20;;;;;;;-142.37;100.00;59669.53;5052359;28;20033;-64
2021/07/09 07:40:08;;;;;;;1.75;0.30;;;;;;;-142.37;100.00;59669.53;5052081;28;20044;-63
2021/07/09 07:42:34;;;;;;;1.27;0.20;;;;;;;-142.37;100.00;59669.53;5045289;28;20395;-61
2021/07/09 07:44:59;;;;;;;1.20;0.25;;;;;;;-142.37;100.00;59669.53;5043614;28;20024;-62
2021/07/09 07:47:24;;;;;;;2.50;0.32;;;;;;;-142.37;100.00;59669.53;5042319;28;20468;-66
2021/07/09 07:49:50;;;;;;;1.27;0.52;;;;;;;-142.37;100.00;59669.53;5049435;28;20036;-62
2021/07/09 07:52:15;;;;;;;1.75;0.30;;;;;;;-142.37;100.00;59669.53;5039136;28;20022;-62
2021/07/09 07:54:41;;;;;;;2.83;0.50;;;;;;;-142.37;100.00;59669.53;5053174;28;20033;-62
2021/07/09 07:57:06;;;;;;;0.35;0.20;;;;;;;-142.37;100.00;59669.53;5045016;28;20025;-62
2021/07/09 07:59:32;;;;;;;0.63;0.50;;;;;;;-142.37;100.00;59669.53;5038661;28;20064;-61
2021/07/09 08:01:57;;;;;;;1.75;0.38;;;;;;;-142.37;100.00;59669.53;5045839;28;20033;-63
2021/07/09 08:04:23;;;;;;;2.10;0.30;;;;;;;-142.37;100.00;59669.53;5043222;28;20033;-63
2021/07/09 08:06:48;;;;;;;0.88;0.30;;;;;;;-142.37;100.00;59669.53;5034733;28;20483;-63
2021/07/09 08:09:14;;;;;;;0.47;0.20;;;;;;;-142.37;100.00;59669.53;5039127;28;20105;-63
2021/07/09 08:11:39;;;;;;;1.30;0.25;;;;;;;-142.37;100.00;59669.53;5047390;28;20063;-63
2021/07/09 08:14:05;;;;;;;0.65;0.20;;;;;;;-142.37;100.00;59669.53;5054010;28;20498;-62
2021/07/09 08:16:30;;;;;;;1.55;0.25;;;;;;;-142.37;100.00;59669.53;5050334;28;20025;-63
2021/07/09 08:18:56;;;;;;;1.23;0.17;;;;;;;-142.37;100.00;59669.53;5050982;28;20025;-63
2021/07/09 08:21:21;;;;;;;0.38;0.20;;;;;;;-142.37;100.00;59669.53;5035654;28;20048;-63
2021/07/09 08:23:47;;;;;;;1.00;0.30;;;;;;;-142.37;100.00;59669.53;5035025;28;20029;-62
2021/07/09 08:26:12;;;;;;;0.75;0.35;;;;;;;-142.37;100.00;59669.53;5048177;28;20030;-63
2021/07/09 08:28:37;;;;;;;0.47;0.20;;;;;;;-142.37;100.00;59669.53;5055379;28;20021;-63
2021/07/09 08:31:03;;;;;;;1.00;0.20;;;;;;;-142.37;100.00;59669.53;5044540;28;20036;-63
2021/07/09 08:33:28;;;;;;;1.08;0.20;;;;;;;-142.37;100.00;59669.53;5045350;28;20088;-64
2021/07/09 08:35:54;;;;;;;0.82;0.28;;;;;;;-142.37;100.00;59669.53;5039704;28;20013;-63
2021/07/09 08:38:19;;;;;;;0.47;0.20;;;;;;;-142.37;100.00;59669.53;5037584;28;20064;-65
2021/07/09 08:40:44;;;;;;;0.57;0.10;;;;;;;-142.37;100.00;59669.53;5042848;28;20048;-63
2021/07/09 08:43:10;;;;;;;0.25;0.20;;;;;;;-142.37;100.00;59669.53;5038025;28;20039;-62
2021/07/09 08:45:36;;;;;;;1.25;0.20;;;;;;;-142.37;100.00;59669.53;5043457;28;20029;-61
2021/07/09 08:48:01;;;;;;;0.30;0.30;;;;;;;-142.37;100.00;59669.53;5039382;28;20043;-61
2021/07/09 08:50:27;;;;;;;0.40;0.30;;;;;;;-142.37;100.00;59669.53;5046042;28;20029;-62
2021/07/09 08:52:52;;;;;;;0.22;0.20;;;;;;;-142.37;100.00;59669.53;5047454;28;20029;-61
2021/07/09 08:55:19;;;;;;;2.58;0.30;;;;;;;-142.37;100.00;59669.53;5041260;28;20348;-62
2021/07/09 08:57:45;;;;;;;0.65;0.35;;;;;;;-142.37;100.00;59669.53;5044926;28;20032;-61
2021/07/09 09:00:26;;;;;;;0.30;0.10;;;;;;;-142.37;100.00;59669.53;5039393;28;20388;-63
2021/07/09 09:02:52;;;;;;;0.65;0.17;;;;;;;-142.37;100.00;59669.53;5040318;28;20116;-62
2021/07/09 09:05:26;;;;;;;0.43;0.13;;;;;;;-142.37;100.00;59669.53;5041778;28;20581;-61
2021/07/09 09:08:03;;;;;;;0.10;0.10;;;;;;;-142.37;100.00;59669.53;5044985;28;20379;-61
2021/07/09 09:10:35;;;;;;;0.57;0.20;;;;;;;-142.37;100.00;59669.53;5037704;28;20056;-61
2021/07/09 09:13:09;;;;;;;0.93;0.30;;;;;;;-142.37;100.00;59669.53;5036795;28;20033;-62
2021/07/09 09:15:38;;;;;;;1.00;0.25;;;;;;;-142.37;100.00;59669.53;5045668;28;20124;-63
2021/07/09 09:18:25;;;;;;;1.17;0.68;;;;;;;-142.37;100.00;59669.53;5043002;28;20029;-62
2021/07/09 09:21:01;;;;;;;2.40;0.63;;;;;;;-142.37;100.00;59669.53;5043015;28;20021;-63
2021/07/09 09:23:29;;;;;;;0.80;0.15;;;;;;;-142.37;100.00;59669.53;5043817;28;20029;-61
2021/07/09 09:25:54;;;;;;;1.27;0.30;;;;;;;-142.37;100.00;59669.53;5036683;28;20029;-63
2021/07/09 09:28:20;;;;;;;1.48;0.30;;;;;;;-142.37;100.00;59669.53;5037782;28;20474;-63
2021/07/09 09:30:49;;;;;;;0.95;0.32;;;;;;;-142.37;100.00;59669.53;5037554;28;20032;-64
2021/07/09 09:33:15;;;;;;;1.15;0.35;;;;;;;-142.37;100.00;59669.53;5044366;28;20052;-64
2021/07/09 09:35:42;;;;;;;0.45;0.22;;;;;;;-142.37;100.00;59669.53;5044788;28;20421;-64
2021/07/09 09:38:10;;;;;;;0.45;0.20;;;;;;;-142.37;100.00;59669.53;5045666;28;20403;-63
2021/07/09 09:40:38;;;;;;;0.88;0.30;;;;;;;-142.37;100.00;59669.53;5052930;28;20107;-64
2021/07/09 09:43:10;;;;;;;0.55;0.20;;;;;;;-142.37;100.00;59669.53;5036760;28;20482;-62
2021/07/09 09:45:37;;;;;;;1.95;0.32;;;;;;;-142.37;100.00;59669.53;5033610;28;20025;-63
2021/07/09 09:48:05;;;;;;;0.75;0.30;;;;;;;-142.37;100.00;59669.53;5033863;28;20075;-65
2021/07/09 09:50:30;;;;;;;0.63;0.17;;;;;;;-142.37;100.00;59669.53;5034101;28;20576;-62
2021/07/09 09:52:56;;;;;;;0.95;0.40;;;;;;;-142.37;100.00;59669.53;5038892;28;20028;-64
2021/07/09 09:55:23;;;;;;;1.25;0.32;;;;;;;-142.37;100.00;59669.53;5040988;28;20474;-65
2021/07/09 09:58:12;;;;;;;0.98;0.28;;;;;;;-142.37;100.00;59669.53;5037163;28;20096;-65
2021/07/09 10:00:39;;;;;;;1.15;0.70;;;;;;;-142.37;100.00;59669.53;5035781;28;20025;-64
2021/07/09 10:03:05;;;;;;;0.30;0.20;;;;;;;-142.37;100.00;59669.53;5053544;28;20040;-65
2021/07/09 10:05:35;;;;;;;0.57;0.30;;;;;;;-142.37;100.00;59669.53;5050929;28;20029;-65
2021/07/09 10:08:01;;;;;;;0.75;0.20;;;;;;;-142.37;100.00;59669.53;5052717;28;20044;-65
2021/07/09 10:10:27;;;;;;;0.88;0.30;;;;;;;-142.37;100.00;59669.53;5053655;28;20460;-65
2021/07/09 10:12:54;;;;;;;0.93;0.20;;;;;;;-142.37;100.00;59669.53;5053525;28;20043;-65
2021/07/09 10:15:19;;;;;;;0.32;0.15;;;;;;;-142.37;100.00;59669.53;5053132;28;20111;-64
2021/07/09 10:17:49;;;;;;;1.38;0.10;;;;;;;-142.37;100.00;59669.53;5044447;28;20047;-65
2021/07/09 10:20:16;;;;;;;0.45;0.20;;;;;;;-142.37;100.00;59669.53;5033226;28;20652;-64
2021/07/09 10:22:42;;;;;;;0.25;0.20;;;;;;;-142.37;100.00;59669.53;5033392;28;20029;-64
2021/07/09 10:25:08;;;;;;;0.20;0.20;;;;;;;-142.37;100.00;59669.53;5040067;28;20025;-64
2021/07/09 10:27:34;;;;;;;0.10;0.10;;;;;;;-142.37;100.00;59669.53;5052707;28;20032;-64
2021/07/09 10:30:05;;;;;;;0.35;0.20;;;;;;;-142.37;100.00;59669.53;5052966;28;20040;-64
2021/07/09 10:32:38;;;;;;;0.93;0.20;;;;;;;-142.37;100.00;59669.53;5052935;28;20103;-64
2021/07/09 10:35:05;;;;;;;0.38;0.10;;;;;;;-142.37;100.00;59669.53;5053047;28;20092;-64
2021/07/09 10:37:31;;;;;;;0.93;0.20;;;;;;;-142.37;100.00;59669.53;5051118;28;20066;-64
2021/07/09 10:40:12;;;;;;;0.38;0.17;;;;;;;-142.37;100.00;59669.53;5052938;28;20033;-64
2021/07/09 10:42:44;;;;;;;0.30;0.10;;;;;;;-142.37;100.00;59669.53;5032989;28;20022;-64
2021/07/09 10:45:23;;;;;;;0.30;0.10;;;;;;;-142.37;100.00;59669.53;5033035;28;20049;-64
2021/07/09 10:47:52;;;;;;;0.50;0.20;;;;;;;-142.37;100.00;59669.53;5033156;28;20029;-64
2021/07/09 10:50:33;;;;;;;2.50;0.17;;;;;;;-142.37;100.00;59669.53;5033258;28;20384;-63
2021/07/09 10:53:01;;;;;;;0.88;0.20;;;;;;;-142.37;100.00;59669.53;5032844;28;20075;-64
2021/07/09 10:55:27;;;;;;;0.88;0.15;;;;;;;-142.37;100.00;59669.53;5033230;28;20026;-63
2021/07/09 10:58:07;;;;;;;0.40;0.10;;;;;;;-142.37;100.00;59669.53;5032883;28;20065;-63
2021/07/09 11:01:03;;;;;;;0.20;0.17;;;;;;;-142.37;100.00;59669.53;5032683;28;20083;-63
2021/07/09 11:03:31;;;;;;;0.63;0.20;;;;;;;-142.37;100.00;59669.53;5036594;28;20049;-64
2021/07/09 11:06:20;;;;;;;0.25;0.20;;;;;;;-142.37;100.00;59669.53;5046200;28;20025;-63
2021/07/09 11:09:05;;;;;;;0.68;0.10;;;;;;;-142.37;100.00;59669.53;5052445;28;20383;-64